PILOTS ONLINE: 345    ATC ONLINE: 34

MDPC

Punta Cana International Airport

Location

IATA PUJ
City Punta Cana
Country  Dominican Republic
Latitude 18° 34' 2" N
Longitude 68° 21' 48" W
Elevation 47 ft
Type Large Airport

Map

Weather

METAR
2014/09/18 13:00
MDPC 181300Z 14004KT 9999 FEW020 29/24 Q1015 NOSIG
TAF
2014/09/18 12:16
TAF MDPC 181000Z 1812/1912 00000KT 9999 FEW018 
      BECMG 1813/1815 09005KT

Runways

09/27 10171 ft / 157 ft

Outbound flights

Callsign Flying to Pilot ATD/STD ETA Aircraft
N767ML  TNCM - Saint Martin
Netherlands Antilles
Carlos Leonardo Gutierrez Garzon
948369
13:20 14:20 B763
CSB013  SVMI - Caracas
Venezuela
Michal Kot
1187240
13:27 14:57 C750

Inbound flights

Callsign Flying from Pilot ATD ETA Aircraft